sensor_id;sensor_type;location;lat;lon;timestamp;pressure;altitude;pressure_sealevel;temperature;humidity
17873;BME280;36318;42.620;23.338;2022-09-30T00:01:51;57441.44;;;-142.96;100.00
17873;BME280;36318;42.620;23.338;2022-09-30T00:04:21;57441.44;;;-142.96;100.00
17873;BME280;36318;42.620;23.338;2022-09-30T00:06:49;57441.44;;;-142.96;100.00
17873;BME280;36318;42.620;23.338;2022-09-30T00:09:16;57441.44;;;-142.96;100.00
17873;BME280;36318;42.620;23.338;2022-09-30T00:11:43;57441.44;;;-142.96;100.00
17873;BME280;36318;42.620;23.338;2022-09-30T00:14:15;57441.44;;;-142.96;100.00
17873;BME280;36318;42.620;23.338;2022-09-30T00:16:42;57441.44;;;-142.96;100.00
17873;BME280;36318;42.620;23.338;2022-09-30T00:19:10;57441.44;;;-142.96;100.00
17873;BME280;36318;42.620;23.338;2022-09-30T00:21:36;57441.44;;;-142.96;100.00
17873;BME280;36318;42.620;23.338;2022-09-30T00:24:04;57441.44;;;-142.96;100.00
17873;BME280;36318;42.620;23.338;2022-09-30T00:26:32;57441.44;;;-142.96;100.00
17873;BME280;36318;42.620;23.338;2022-09-30T00:29:00;57441.44;;;-142.96;100.00
17873;BME280;36318;42.620;23.338;2022-09-30T00:31:31;57441.44;;;-142.96;100.00
17873;BME280;36318;42.620;23.338;2022-09-30T00:33:59;57441.44;;;-142.96;100.00
17873;BME280;36318;42.620;23.338;2022-09-30T00:36:32;57441.44;;;-142.96;100.00
17873;BME280;36318;42.620;23.338;2022-09-30T00:39:00;57441.44;;;-142.96;100.00
17873;BME280;36318;42.620;23.338;2022-09-30T00:41:26;57441.44;;;-142.96;100.00
17873;BME280;36318;42.620;23.338;2022-09-30T00:43:53;57441.44;;;-142.96;100.00
17873;BME280;36318;42.620;23.338;2022-09-30T00:46:25;57441.44;;;-142.96;100.00
17873;BME280;36318;42.620;23.338;2022-09-30T00:48:57;57441.44;;;-142.96;100.00
17873;BME280;36318;42.620;23.338;2022-09-30T00:51:29;57441.44;;;-142.96;100.00
17873;BME280;36318;42.620;23.338;2022-09-30T00:53:59;57441.44;;;-142.96;100.00
17873;BME280;36318;42.620;23.338;2022-09-30T00:56:31;57441.44;;;-142.96;100.00
17873;BME280;36318;42.620;23.338;2022-09-30T00:59:02;57441.44;;;-142.96;100.00
17873;BME280;36318;42.620;23.338;2022-09-30T01:01:31;57441.44;;;-142.96;100.00
17873;BME280;36318;42.620;23.338;2022-09-30T01:04:02;57441.44;;;-142.96;100.00
17873;BME280;36318;42.620;23.338;2022-09-30T01:06:31;57441.44;;;-142.96;100.00
17873;BME280;36318;42.620;23.338;2022-09-30T01:08:59;57441.44;;;-142.96;100.00
17873;BME280;36318;42.620;23.338;2022-09-30T01:11:27;57441.44;;;-142.96;100.00
17873;BME280;36318;42.620;23.338;2022-09-30T01:13:56;57441.44;;;-142.96;100.00
17873;BME280;36318;42.620;23.338;2022-09-30T01:19:53;57441.44;;;-142.96;100.00
17873;BME280;36318;42.620;23.338;2022-09-30T01:22:35;57441.44;;;-142.96;100.00
17873;BME280;36318;42.620;23.338;2022-09-30T01:25:34;57441.44;;;-142.96;100.00
17873;BME280;36318;42.620;23.338;2022-09-30T01:28:48;57441.44;;;-142.96;100.00
17873;BME280;36318;42.620;23.338;2022-09-30T01:31:31;57441.44;;;-142.96;100.00
17873;BME280;36318;42.620;23.338;2022-09-30T01:34:13;57441.44;;;-142.96;100.00
17873;BME280;36318;42.620;23.338;2022-09-30T01:36:51;57441.44;;;-142.96;100.00
17873;BME280;36318;42.620;23.338;2022-09-30T01:39:31;57441.44;;;-142.96;100.00
17873;BME280;36318;42.620;23.338;2022-09-30T01:42:09;57441.44;;;-142.96;100.00
17873;BME280;36318;42.620;23.338;2022-09-30T01:44:45;57441.44;;;-142.96;100.00
17873;BME280;36318;42.620;23.338;2022-09-30T01:47:21;57441.44;;;-142.96;100.00
17873;BME280;36318;42.620;23.338;2022-09-30T01:49:56;57441.44;;;-142.96;100.00
17873;BME280;36318;42.620;23.338;2022-09-30T01:52:32;57441.44;;;-142.96;100.00
17873;BME280;36318;42.620;23.338;2022-09-30T01:55:06;57441.44;;;-142.96;100.00
17873;BME280;36318;42.620;23.338;2022-09-30T01:57:42;57441.44;;;-142.96;100.00
17873;BME280;36318;42.620;23.338;2022-09-30T02:00:11;57441.44;;;-142.96;100.00
17873;BME280;36318;42.620;23.338;2022-09-30T02:02:45;57441.44;;;-142.96;100.00
17873;BME280;36318;42.620;23.338;2022-09-30T02:05:16;57441.44;;;-142.96;100.00
17873;BME280;36318;42.620;23.338;2022-09-30T02:07:47;57441.44;;;-142.96;100.00
17873;BME280;36318;42.620;23.338;2022-09-30T02:10:18;57441.44;;;-142.96;100.00
17873;BME280;36318;42.620;23.338;2022-09-30T02:12:49;57441.44;;;-142.96;100.00
17873;BME280;36318;42.620;23.338;2022-09-30T02:15:21;57441.44;;;-142.96;100.00
17873;BME280;36318;42.620;23.338;2022-09-30T02:17:54;57441.44;;;-142.96;100.00
17873;BME280;36318;42.620;23.338;2022-09-30T02:20:25;57441.44;;;-142.96;100.00
17873;BME280;36318;42.620;23.338;2022-09-30T02:22:57;57441.44;;;-142.96;100.00
17873;BME280;36318;42.620;23.338;2022-09-30T02:25:29;57441.44;;;-142.96;100.00
17873;BME280;36318;42.620;23.338;2022-09-30T02:28:01;57441.44;;;-142.96;100.00
17873;BME280;36318;42.620;23.338;2022-09-30T02:30:30;57441.44;;;-142.96;100.00
17873;BME280;36318;42.620;23.338;2022-09-30T02:33:02;57441.44;;;-142.96;100.00
17873;BME280;36318;42.620;23.338;2022-09-30T02:35:34;57441.44;;;-142.96;100.00
17873;BME280;36318;42.620;23.338;2022-09-30T02:38:05;57441.44;;;-142.96;100.00
17873;BME280;36318;42.620;23.338;2022-09-30T02:40:38;57441.44;;;-142.96;100.00
17873;BME280;36318;42.620;23.338;2022-09-30T02:43:08;57441.44;;;-142.96;100.00
17873;BME280;36318;42.620;23.338;2022-09-30T02:45:42;57441.44;;;-142.96;100.00
17873;BME280;36318;42.620;23.338;2022-09-30T02:48:22;57441.44;;;-142.96;100.00
17873;BME280;36318;42.620;23.338;2022-09-30T02:50:54;57441.44;;;-142.96;100.00
17873;BME280;36318;42.620;23.338;2022-09-30T02:53:26;57441.44;;;-142.96;100.00
17873;BME280;36318;42.620;23.338;2022-09-30T02:56:07;57441.44;;;-142.96;100.00
17873;BME280;36318;42.620;23.338;2022-09-30T02:58:36;57441.44;;;-142.96;100.00
17873;BME280;36318;42.620;23.338;2022-09-30T03:01:05;57441.44;;;-142.96;100.00
17873;BME280;36318;42.620;23.338;2022-09-30T03:03:37;57441.44;;;-142.96;100.00
17873;BME280;36318;42.620;23.338;2022-09-30T03:06:06;57441.44;;;-142.96;100.00
17873;BME280;36318;42.620;23.338;2022-09-30T03:08:34;57441.44;;;-142.96;100.00
17873;BME280;36318;42.620;23.338;2022-09-30T03:11:02;57441.44;;;-142.96;100.00
17873;BME280;36318;42.620;23.338;2022-09-30T03:16:38;57441.44;;;-142.96;100.00
17873;BME280;36318;42.620;23.338;2022-09-30T03:19:23;57441.44;;;-142.96;100.00
17873;BME280;36318;42.620;23.338;2022-09-30T03:22:09;57441.44;;;-142.96;100.00
17873;BME280;36318;42.620;23.338;2022-09-30T03:24:58;57441.44;;;-142.96;100.00
17873;BME280;36318;42.620;23.338;2022-09-30T03:27:34;57441.44;;;-142.96;100.00
17873;BME280;36318;42.620;23.338;2022-09-30T03:30:06;57441.44;;;-142.96;100.00
17873;BME280;36318;42.620;23.338;2022-09-30T03:32:51;57441.44;;;-142.96;100.00
17873;BME280;36318;42.620;23.338;2022-09-30T03:35:29;57441.44;;;-142.96;100.00
17873;BME280;36318;42.620;23.338;2022-09-30T03:38:02;57441.44;;;-142.96;100.00
17873;BME280;36318;42.620;23.338;2022-09-30T03:40:39;57441.44;;;-142.96;100.00
17873;BME280;36318;42.620;23.338;2022-09-30T03:43:14;57441.44;;;-142.96;100.00
17873;BME280;36318;42.620;23.338;2022-09-30T03:45:49;57441.44;;;-142.96;100.00
17873;BME280;36318;42.620;23.338;2022-09-30T03:48:19;57441.44;;;-142.96;100.00
17873;BME280;36318;42.620;23.338;2022-09-30T03:50:48;57441.44;;;-142.96;100.00
17873;BME280;36318;42.620;23.338;2022-09-30T03:53:18;57441.44;;;-142.96;100.00
17873;BME280;36318;42.620;23.338;2022-09-30T03:55:47;57441.44;;;-142.96;100.00
17873;BME280;36318;42.620;23.338;2022-09-30T03:58:15;57441.44;;;-142.96;100.00
17873;BME280;36318;42.620;23.338;2022-09-30T04:00:46;57441.44;;;-142.96;100.00
17873;BME280;36318;42.620;23.338;2022-09-30T04:03:14;57441.44;;;-142.96;100.00
17873;BME280;36318;42.620;23.338;2022-09-30T04:05:41;57441.44;;;-142.96;100.00
17873;BME280;36318;42.620;23.338;2022-09-30T04:08:09;57441.44;;;-142.96;100.00
17873;BME280;36318;42.620;23.338;2022-09-30T04:10:38;57441.44;;;-142.96;100.00
17873;BME280;36318;42.620;23.338;2022-09-30T04:13:05;57441.44;;;-142.96;100.00
17873;BME280;36318;42.620;23.338;2022-09-30T04:15:32;57441.44;;;-142.96;100.00
17873;BME280;36318;42.620;23.338;2022-09-30T04:17:59;57441.44;;;-142.96;100.00
17873;BME280;36318;42.620;23.338;2022-09-30T04:20:25;57441.44;;;-142.96;100.00
17873;BME280;36318;42.620;23.338;2022-09-30T04:22:55;57441.44;;;-142.96;100.00
17873;BME280;36318;42.620;23.338;2022-09-30T04:25:25;57441.44;;;-142.96;100.00
17873;BME280;36318;42.620;23.338;2022-09-30T04:27:52;57441.44;;;-142.96;100.00
17873;BME280;36318;42.620;23.338;2022-09-30T04:30:18;57441.44;;;-142.96;100.00
17873;BME280;36318;42.620;23.338;2022-09-30T04:32:45;57441.44;;;-142.96;100.00
17873;BME280;36318;42.620;23.338;2022-09-30T04:35:12;57441.44;;;-142.96;100.00
17873;BME280;36318;42.620;23.338;2022-09-30T04:37:43;57441.44;;;-142.96;100.00
17873;BME280;36318;42.620;23.338;2022-09-30T04:40:10;57441.44;;;-142.96;100.00
17873;BME280;36318;42.620;23.338;2022-09-30T04:42:39;57441.44;;;-142.96;100.00
17873;BME280;36318;42.620;23.338;2022-09-30T04:45:08;57441.44;;;-142.96;100.00
17873;BME280;36318;42.620;23.338;2022-09-30T04:47:35;57441.44;;;-142.96;100.00
17873;BME280;36318;42.620;23.338;2022-09-30T04:50:02;57441.44;;;-142.96;100.00
17873;BME280;36318;42.620;23.338;2022-09-30T04:52:29;57441.44;;;-142.96;100.00
17873;BME280;36318;42.620;23.338;2022-09-30T04:54:56;57441.44;;;-142.96;100.00
17873;BME280;36318;42.620;23.338;2022-09-30T04:57:23;57441.44;;;-142.96;100.00
17873;BME280;36318;42.620;23.338;2022-09-30T04:59:52;57441.44;;;-142.96;100.00
17873;BME280;36318;42.620;23.338;2022-09-30T05:02:19;57441.44;;;-142.96;100.00
17873;BME280;36318;42.620;23.338;2022-09-30T05:04:46;57441.44;;;-142.96;100.00
17873;BME280;36318;42.620;23.338;2022-09-30T05:07:13;57441.44;;;-142.96;100.00
17873;BME280;36318;42.620;23.338;2022-09-30T05:09:39;57441.44;;;-142.96;100.00
17873;BME280;36318;42.620;23.338;2022-09-30T05:12:06;57441.44;;;-142.96;100.00
17873;BME280;36318;42.620;23.338;2022-09-30T05:14:33;57441.44;;;-142.96;100.00
17873;BME280;36318;42.620;23.338;2022-09-30T05:17:01;57441.44;;;-142.96;100.00
17873;BME280;36318;42.620;23.338;2022-09-30T05:19:28;57441.44;;;-142.96;100.00
17873;BME280;36318;42.620;23.338;2022-09-30T05:21:55;57441.44;;;-142.96;100.00
17873;BME280;36318;42.620;23.338;2022-09-30T05:24:22;57441.44;;;-142.96;100.00
17873;BME280;36318;42.620;23.338;2022-09-30T05:26:50;57441.44;;;-142.96;100.00
17873;BME280;36318;42.620;23.338;2022-09-30T05:29:16;57441.44;;;-142.96;100.00
17873;BME280;36318;42.620;23.338;2022-09-30T05:31:43;57441.44;;;-142.96;100.00
17873;BME280;36318;42.620;23.338;2022-09-30T05:34:11;57441.44;;;-142.96;100.00
17873;BME280;36318;42.620;23.338;2022-09-30T05:36:41;57441.44;;;-142.96;100.00
17873;BME280;36318;42.620;23.338;2022-09-30T05:39:08;57441.44;;;-142.96;100.00
17873;BME280;36318;42.620;23.338;2022-09-30T05:41:36;57441.44;;;-142.96;100.00
17873;BME280;36318;42.620;23.338;2022-09-30T05:44:03;57441.44;;;-142.96;100.00
17873;BME280;36318;42.620;23.338;2022-09-30T05:46:31;57441.44;;;-142.96;100.00
17873;BME280;36318;42.620;23.338;2022-09-30T05:48:58;57441.44;;;-142.96;100.00
17873;BME280;36318;42.620;23.338;2022-09-30T05:51:26;57441.44;;;-142.96;100.00
17873;BME280;36318;42.620;23.338;2022-09-30T05:53:53;57441.44;;;-142.96;100.00
17873;BME280;36318;42.620;23.338;2022-09-30T05:56:20;57441.44;;;-142.96;100.00
17873;BME280;36318;42.620;23.338;2022-09-30T05:58:46;57441.44;;;-142.96;100.00
17873;BME280;36318;42.620;23.338;2022-09-30T06:01:15;57441.44;;;-142.96;100.00
17873;BME280;36318;42.620;23.338;2022-09-30T06:03:43;57441.44;;;-142.96;100.00
17873;BME280;36318;42.620;23.338;2022-09-30T06:06:10;57441.44;;;-142.96;100.00
17873;BME280;36318;42.620;23.338;2022-09-30T06:08:39;57441.44;;;-142.96;100.00
17873;BME280;36318;42.620;23.338;2022-09-30T06:11:09;57441.44;;;-142.96;100.00
17873;BME280;36318;42.620;23.338;2022-09-30T06:13:37;57441.44;;;-142.96;100.00
17873;BME280;36318;42.620;23.338;2022-09-30T06:16:05;57441.44;;;-142.96;100.00
17873;BME280;36318;42.620;23.338;2022-09-30T06:18:33;57441.44;;;-142.96;100.00
17873;BME280;36318;42.620;23.338;2022-09-30T06:21:02;57441.44;;;-142.96;100.00
17873;BME280;36318;42.620;23.338;2022-09-30T06:23:30;57441.44;;;-142.96;100.00
17873;BME280;36318;42.620;23.338;2022-09-30T06:26:02;57441.44;;;-142.96;100.00
17873;BME280;36318;42.620;23.338;2022-09-30T06:28:29;57441.44;;;-142.96;100.00
17873;BME280;36318;42.620;23.338;2022-09-30T06:30:58;57441.44;;;-142.96;100.00
17873;BME280;36318;42.620;23.338;2022-09-30T06:33:25;57441.44;;;-142.96;100.00
17873;BME280;36318;42.620;23.338;2022-09-30T06:35:52;57441.44;;;-142.96;100.00
17873;BME280;36318;42.620;23.338;2022-09-30T06:38:19;57441.44;;;-142.96;100.00
17873;BME280;36318;42.620;23.338;2022-09-30T06:56:45;92885.78;;;28.97;75.74
17873;BME280;36318;42.620;23.338;2022-09-30T06:59:12;92894.06;;;29.24;72.19
17873;BME280;36318;42.620;23.338;2022-09-30T07:01:40;92883.31;;;30.02;68.07
17873;BME280;36318;42.620;23.338;2022-09-30T07:04:08;92889.53;;;30.07;65.54
17873;BME280;36318;42.620;23.338;2022-09-30T07:06:36;92883.63;;;30.05;64.68
17873;BME280;36318;42.620;23.338;2022-09-30T07:09:03;92886.78;;;30.19;66.82
17873;BME280;36318;42.620;23.338;2022-09-30T07:11:30;92902.22;;;30.34;66.27
17873;BME280;36318;42.620;23.338;2022-09-30T07:13:59;92908.81;;;30.26;68.18
17873;BME280;36318;42.620;23.338;2022-09-30T07:16:25;92906.84;;;30.55;65.44
17873;BME280;36318;42.620;23.338;2022-09-30T07:18:52;92907.19;;;31.07;63.13
17873;BME280;36318;42.620;23.338;2022-09-30T07:21:19;92905.09;;;30.65;62.52
17873;BME280;36318;42.620;23.338;2022-09-30T07:23:46;92904.69;;;31.22;60.96
17873;BME280;36318;42.620;23.338;2022-09-30T07:26:13;92898.16;;;31.66;57.35
17873;BME280;36318;42.620;23.338;2022-09-30T07:28:40;92922.47;;;30.41;61.09
17873;BME280;36318;42.620;23.338;2022-09-30T07:31:12;92920.16;;;30.50;63.28
17873;BME280;36318;42.620;23.338;2022-09-30T07:33:40;92924.94;;;31.08;60.01
17873;BME280;36318;42.620;23.338;2022-09-30T07:36:08;92920.44;;;31.40;59.96
17873;BME280;36318;42.620;23.338;2022-09-30T07:38:37;92923.41;;;31.65;58.78
17873;BME280;36318;42.620;23.338;2022-09-30T07:41:07;92912.06;;;32.27;56.54
17873;BME280;36318;42.620;23.338;2022-09-30T07:43:36;92916.25;;;32.49;54.65
17873;BME280;36318;42.620;23.338;2022-09-30T07:46:05;92920.88;;;32.59;53.64
17873;BME280;36318;42.620;23.338;2022-09-30T07:48:34;92922.66;;;32.43;54.02
17873;BME280;36318;42.620;23.338;2022-09-30T07:51:08;92917.66;;;32.57;54.42
17873;BME280;36318;42.620;23.338;2022-09-30T07:53:35;92899.38;;;32.64;52.75
17873;BME280;36318;42.620;23.338;2022-09-30T07:56:03;92905.19;;;32.46;54.12
17873;BME280;36318;42.620;23.338;2022-09-30T07:58:30;92924.69;;;32.63;54.36
17873;BME280;36318;42.620;23.338;2022-09-30T08:00:57;92914.97;;;33.19;52.88
17873;BME280;36318;42.620;23.338;2022-09-30T08:03:24;92926.38;;;32.37;54.91
17873;BME280;36318;42.620;23.338;2022-09-30T08:05:52;92931.72;;;31.95;53.80
17873;BME280;36318;42.620;23.338;2022-09-30T08:08:19;92937.28;;;32.21;52.63
17873;BME280;36318;42.620;23.338;2022-09-30T08:10:45;92937.31;;;32.63;53.03
17873;BME280;36318;42.620;23.338;2022-09-30T08:13:12;92950.84;;;32.36;54.35
17873;BME280;36318;42.620;23.338;2022-09-30T08:15:41;92948.53;;;33.06;53.00
17873;BME280;36318;42.620;23.338;2022-09-30T08:18:08;92947.41;;;33.75;50.70
17873;BME280;36318;42.620;23.338;2022-09-30T08:20:34;92952.25;;;33.73;50.68
17873;BME280;36318;42.620;23.338;2022-09-30T08:23:02;92962.69;;;33.39;49.29
17873;BME280;36318;42.620;23.338;2022-09-30T08:25:29;92956.88;;;32.53;51.29
17873;BME280;36318;42.620;23.338;2022-09-30T08:27:56;92963.91;;;32.59;52.20
17873;BME280;36318;42.620;23.338;2022-09-30T08:30:23;92972.81;;;32.65;51.89
17873;BME280;36318;42.620;23.338;2022-09-30T08:32:49;92962.28;;;34.22;50.30
17873;BME280;36318;42.620;23.338;2022-09-30T08:35:16;92961.97;;;34.64;49.59
17873;BME280;36318;42.620;23.338;2022-09-30T08:37:43;92963.34;;;34.21;47.70
17873;BME280;36318;42.620;23.338;2022-09-30T08:40:18;92944.34;;;33.31;49.13
17873;BME280;36318;42.620;23.338;2022-09-30T08:43:01;92961.44;;;34.02;48.78
17873;BME280;36318;42.620;23.338;2022-09-30T08:45:38;92958.47;;;34.34;48.59
17873;BME280;36318;42.620;23.338;2022-09-30T08:48:21;92957.69;;;34.23;47.59
17873;BME280;36318;42.620;23.338;2022-09-30T08:51:02;92965.44;;;34.90;47.72
17873;BME280;36318;42.620;23.338;2022-09-30T08:53:34;92969.28;;;34.23;46.18
17873;BME280;36318;42.620;23.338;2022-09-30T08:56:05;92969.50;;;34.88;46.73
17873;BME280;36318;42.620;23.338;2022-09-30T08:58:34;92979.00;;;34.24;47.07
17873;BME280;36318;42.620;23.338;2022-09-30T09:01:09;92973.03;;;34.73;48.06
17873;BME280;36318;42.620;23.338;2022-09-30T09:03:38;92981.94;;;35.63;45.80
17873;BME280;36318;42.620;23.338;2022-09-30T09:06:17;92970.84;;;36.08;44.57
17873;BME280;36318;42.620;23.338;2022-09-30T09:08:56;92968.81;;;35.26;44.38
17873;BME280;36318;42.620;23.338;2022-09-30T09:11:46;92969.25;;;33.88;46.91
17873;BME280;36318;42.620;23.338;2022-09-30T09:14:27;92982.06;;;32.47;49.83
17873;BME280;36318;42.620;23.338;2022-09-30T09:17:04;92990.91;;;31.79;53.78
17873;BME280;36318;42.620;23.338;2022-09-30T09:19:41;92990.97;;;31.14;55.64
17873;BME280;36318;42.620;23.338;2022-09-30T09:22:13;92989.09;;;30.21;58.37
17873;BME280;36318;42.620;23.338;2022-09-30T09:24:42;92997.22;;;29.08;60.28
17873;BME280;36318;42.620;23.338;2022-09-30T09:27:18;93006.13;;;28.51;69.54
17873;BME280;36318;42.620;23.338;2022-09-30T09:29:55;93001.97;;;28.55;75.09
17873;BME280;36318;42.620;23.338;2022-09-30T09:32:26;93008.81;;;28.74;76.27
17873;BME280;36318;42.620;23.338;2022-09-30T09:34:57;93001.38;;;28.29;77.90
17873;BME280;36318;42.620;23.338;2022-09-30T09:37:32;93003.09;;;28.47;74.93
17873;BME280;36318;42.620;23.338;2022-09-30T09:40:26;92993.72;;;28.21;72.94
17873;BME280;36318;42.620;23.338;2022-09-30T09:43:12;93002.31;;;28.46;78.03
17873;BME280;36318;42.620;23.338;2022-09-30T09:45:48;93000.31;;;28.42;76.69
17873;BME280;36318;42.620;23.338;2022-09-30T09:48:17;93004.25;;;28.74;74.59
17873;BME280;36318;42.620;23.338;2022-09-30T09:50:55;93001.47;;;28.58;72.62
17873;BME280;36318;42.620;23.338;2022-09-30T09:53:43;92993.94;;;28.08;70.91
17873;BME280;36318;42.620;23.338;2022-09-30T09:56:14;92993.38;;;28.29;75.48
17873;BME280;36318;42.620;23.338;2022-09-30T09:59:10;93000.78;;;28.39;75.22
17873;BME280;36318;42.620;23.338;2022-09-30T10:01:41;93007.88;;;28.57;69.92
17873;BME280;36318;42.620;23.338;2022-09-30T10:04:14;93009.59;;;28.74;70.61
17873;BME280;36318;42.620;23.338;2022-09-30T10:06:53;93000.91;;;28.44;67.73
17873;BME280;36318;42.620;23.338;2022-09-30T10:09:24;93002.97;;;28.77;72.85
17873;BME280;36318;42.620;23.338;2022-09-30T10:12:23;92993.00;;;28.84;65.58
17873;BME280;36318;42.620;23.338;2022-09-30T10:14:56;93001.50;;;28.34;62.61
17873;BME280;36318;42.620;23.338;2022-09-30T10:17:26;93002.66;;;28.38;63.60
17873;BME280;36318;42.620;23.338;2022-09-30T10:19:58;93000.56;;;28.29;62.07
17873;BME280;36318;42.620;23.338;2022-09-30T10:22:26;92989.06;;;28.52;65.51
17873;BME280;36318;42.620;23.338;2022-09-30T10:25:13;92991.81;;;28.80;65.47
17873;BME280;36318;42.620;23.338;2022-09-30T10:27:47;92983.88;;;28.96;64.53
17873;BME280;36318;42.620;23.338;2022-09-30T10:30:32;92963.41;;;28.16;58.88
17873;BME280;36318;42.620;23.338;2022-09-30T10:33:01;92984.03;;;27.85;70.97
17873;BME280;36318;42.620;23.338;2022-09-30T10:35:29;92970.34;;;27.94;56.65
17873;BME280;36318;42.620;23.338;2022-09-30T10:37:57;92958.19;;;28.21;57.44
17873;BME280;36318;42.620;23.338;2022-09-30T10:40:27;92981.41;;;28.43;60.81
17873;BME280;36318;42.620;23.338;2022-09-30T10:42:55;92980.00;;;28.29;67.02
17873;BME280;36318;42.620;23.338;2022-09-30T10:45:24;92965.97;;;28.22;62.47
17873;BME280;36318;42.620;23.338;2022-09-30T10:47:55;92986.41;;;28.17;57.54
17873;BME280;36318;42.620;23.338;2022-09-30T10:50:24;92993.81;;;28.26;59.82
17873;BME280;36318;42.620;23.338;2022-09-30T10:52:54;92986.19;;;28.30;57.00
17873;BME280;36318;42.620;23.338;2022-09-30T10:55:27;92994.28;;;28.35;55.83
17873;BME280;36318;42.620;23.338;2022-09-30T10:58:19;92989.88;;;28.75;54.84
17873;BME280;36318;42.620;23.338;2022-09-30T11:00:46;92998.09;;;28.85;55.64
17873;BME280;36318;42.620;23.338;2022-09-30T11:03:20;92994.16;;;29.16;59.09
17873;BME280;36318;42.620;23.338;2022-09-30T11:05:50;92997.88;;;28.87;55.28
17873;BME280;36318;42.620;23.338;2022-09-30T11:08:21;92992.88;;;28.79;58.30
17873;BME280;36318;42.620;23.338;2022-09-30T11:10:55;92990.81;;;29.09;57.84
17873;BME280;36318;42.620;23.338;2022-09-30T11:13:30;92989.94;;;29.20;59.69
17873;BME280;36318;42.620;23.338;2022-09-30T11:16:08;92978.66;;;29.41;53.97
17873;BME280;36318;42.620;23.338;2022-09-30T11:18:44;92983.22;;;29.57;53.93
17873;BME280;36318;42.620;23.338;2022-09-30T11:21:16;92986.84;;;29.51;55.81
17873;BME280;36318;42.620;23.338;2022-09-30T11:23:48;92991.75;;;29.43;51.30
17873;BME280;36318;42.620;23.338;2022-09-30T11:26:26;92983.47;;;29.16;51.68
17873;BME280;36318;42.620;23.338;2022-09-30T11:29:17;92987.28;;;29.32;56.33
17873;BME280;36318;42.620;23.338;2022-09-30T11:31:54;92992.91;;;29.47;55.18
17873;BME280;36318;42.620;23.338;2022-09-30T11:34:36;92991.03;;;29.47;59.24
17873;BME280;36318;42.620;23.338;2022-09-30T11:37:15;92997.31;;;29.70;52.86
17873;BME280;36318;42.620;23.338;2022-09-30T11:39:58;92996.09;;;29.60;50.98
17873;BME280;36318;42.620;23.338;2022-09-30T11:42:36;92993.69;;;29.76;50.97
17873;BME280;36318;42.620;23.338;2022-09-30T11:45:18;92984.22;;;29.85;48.84
17873;BME280;36318;42.620;23.338;2022-09-30T11:47:56;92990.81;;;29.49;46.30
17873;BME280;36318;42.620;23.338;2022-09-30T11:50:41;92991.44;;;27.83;47.94
17873;BME280;36318;42.620;23.338;2022-09-30T11:53:20;92993.88;;;27.85;49.53
17873;BME280;36318;42.620;23.338;2022-09-30T11:56:10;92994.88;;;28.02;48.71
17873;BME280;36318;42.620;23.338;2022-09-30T11:58:42;93008.13;;;28.09;58.38
17873;BME280;36318;42.620;23.338;2022-09-30T12:01:16;92999.88;;;27.57;55.63
17873;BME280;36318;42.620;23.338;2022-09-30T12:03:52;93010.94;;;27.43;55.55
17873;BME280;36318;42.620;23.338;2022-09-30T12:06:26;93002.53;;;27.27;51.03
17873;BME280;36318;42.620;23.338;2022-09-30T12:08:56;92995.47;;;27.63;53.07
17873;BME280;36318;42.620;23.338;2022-09-30T12:11:32;93011.19;;;27.53;50.09
17873;BME280;36318;42.620;23.338;2022-09-30T12:14:06;93014.66;;;27.83;55.94
17873;BME280;36318;42.620;23.338;2022-09-30T12:16:36;93001.53;;;27.81;50.89
17873;BME280;36318;42.620;23.338;2022-09-30T12:19:12;93005.91;;;28.06;55.36
17873;BME280;36318;42.620;23.338;2022-09-30T12:21:47;93002.13;;;27.83;49.37
17873;BME280;36318;42.620;23.338;2022-09-30T12:24:23;92999.88;;;27.69;50.52
17873;BME280;36318;42.620;23.338;2022-09-30T12:26:52;93006.06;;;27.81;51.36
17873;BME280;36318;42.620;23.338;2022-09-30T12:29:23;93001.03;;;27.61;49.02
17873;BME280;36318;42.620;23.338;2022-09-30T12:32:19;93004.13;;;27.47;48.26
17873;BME280;36318;42.620;23.338;2022-09-30T12:34:59;93011.06;;;27.89;52.75
17873;BME280;36318;42.620;23.338;2022-09-30T12:37:39;93010.22;;;27.65;49.01
17873;BME280;36318;42.620;23.338;2022-09-30T12:40:25;93013.34;;;27.74;49.54
17873;BME280;36318;42.620;23.338;2022-09-30T12:43:22;92989.94;;;27.76;48.97
17873;BME280;36318;42.620;23.338;2022-09-30T12:46:07;93001.53;;;27.93;48.43
17873;BME280;36318;42.620;23.338;2022-09-30T12:48:39;93003.09;;;28.01;50.70
17873;BME280;36318;42.620;23.338;2022-09-30T12:51:06;93003.13;;;28.24;48.67
17873;BME280;36318;42.620;23.338;2022-09-30T12:53:37;93022.03;;;28.45;50.28
17873;BME280;36318;42.620;23.338;2022-09-30T12:56:06;93016.13;;;28.43;46.63
17873;BME280;36318;42.620;23.338;2022-09-30T12:58:36;93019.72;;;28.72;48.15
17873;BME280;36318;42.620;23.338;2022-09-30T13:01:06;93024.47;;;28.24;46.88
17873;BME280;36318;42.620;23.338;2022-09-30T13:04:08;93028.66;;;28.43;48.55
17873;BME280;36318;42.620;23.338;2022-09-30T13:09:55;93025.06;;;28.84;46.37
17873;BME280;36318;42.620;23.338;2022-09-30T13:12:24;93025.88;;;28.84;45.30
17873;BME280;36318;42.620;23.338;2022-09-30T13:21:23;93018.97;;;29.12;46.64
17873;BME280;36318;42.620;23.338;2022-09-30T13:23:51;93019.63;;;29.30;45.85
17873;BME280;36318;42.620;23.338;2022-09-30T13:26:35;93029.53;;;29.75;48.38
17873;BME280;36318;42.620;23.338;2022-09-30T13:29:32;93025.63;;;29.94;46.28
17873;BME280;36318;42.620;23.338;2022-09-30T13:32:07;92999.66;;;30.11;48.36
17873;BME280;36318;42.620;23.338;2022-09-30T13:34:56;93027.25;;;30.28;44.94